In Rescue
 
Open Full Screen Window  High Contrast Mode
November 25, 2020 2:35 AM PST
Weather Information
Wind Direction
  ---
Wind Speed
  00 kt (0 mph)
Wind Gust
  00 kt (0 mph)
Altimeter
30.19 in
Visibility
10 SM
Temperature
06° C
43° F
Dewpoint
03° C
37° F
Humidity
81%
1hr Rain Fall
00.00 in.
24hr Rain Fall
00.00 in.
Sky Condition
Broken @ 900 ft
IFR

METAR KCVH 251035Z AUTO 00000KT 10SM BKN009 06/03 A3019 RMK A01

FAA Disclaimer: The data displayed is for advisory purposes only and is not to be used for flight planning or operations.